ADDS METAR Data INFO
IDs: Format: Raw Decoded Include TAF

Data at: 2053 UTC 26 May 2017

KPEZ 262035Z AUTO 16006KT 10SM SCT037 BKN045 33/22 A2983 RMK AO2 T03300217
KPEZ 262015Z AUTO 23005KT 10SM SCT037 BKN045 33/22 A2983 RMK AO2 T03320218
KPEZ 261955Z AUTO 17005KT 10SM SCT033 BKN043 32/22 A2984 RMK AO2 T03210218
KPEZ 261935Z AUTO 22006KT 10SM SCT033 BKN041 32/22 A2985 RMK AO2 T03230218
KPEZ 261915Z AUTO 14007KT 10SM BKN033 BKN041 32/22 A2985 RMK AO2 T03170222
KPEZ 261855Z AUTO 16010KT 10SM SCT030 BKN038 32/22 A2985 RMK AO2 T03190223
KPEZ 261815Z AUTO 17005KT 10SM SCT033 BKN040 31/22 A2986 RMK AO2 T03090220
KPEZ 261755Z AUTO 17010KT 130V190 10SM SCT028 SCT034 OVC040 31/23 A2987 RMK AO2 T03050226 10305 20247
KPEZ 261735Z AUTO 16006KT 10SM SCT020 SCT030 OVC037 29/23 A2988 RMK AO2 T02860226
KPEZ 261715Z AUTO 17006KT 10SM SCT022 BKN028 OVC035 28/23 A2988 RMK AO2 T02810226
KPEZ 261655Z AUTO 15005KT 10SM OVC021 28/23 A2988 RMK AO2 T02750227
KPEZ 261635Z AUTO 14004KT 10SM OVC021 27/23 A2988 RMK AO2 T02720226
KPEZ 261615Z AUTO 16006KT 10SM OVC021 27/23 A2987 RMK AO2 T02730225
KPEZ 261555Z AUTO 15010KT 10SM OVC019 27/23 A2986 RMK AO2 T02710226
KPEZ 261535Z AUTO 15008KT 10SM BKN015 OVC023 27/23 A2986 RMK AO2 T02700229
KPEZ 261515Z AUTO 14007KT 10SM BKN013 OVC023 27/23 A2986 RMK AO2 T02650228
KPEZ 261455Z AUTO 14007KT 10SM BKN011 BKN017 OVC025 26/23 A2986 RMK AO2 T02620228
KPEZ 261435Z AUTO 15008KT 10SM BKN011 OVC025 26/23 A2986 RMK AO2 T02600230
KPEZ 261415Z AUTO 14006KT 10SM BKN011 OVC025 26/23 A2985 RMK AO2 T02590229
KPEZ 261355Z AUTO 15007KT 10SM SCT011 OVC025 26/23 A2986 RMK AO2 T02550227
KPEZ 261335Z AUTO 15008KT 10SM SCT009 OVC025 26/23 A2985 RMK AO2 T02550226
KPEZ 261315Z AUTO 14007KT 10SM OVC025 25/23 A2984 RMK AO2 T02520226
KPEZ 261255Z AUTO 12004KT 10SM OVC023 25/23 A2983 RMK AO2 T02480225
KPEZ 261235Z AUTO 12006KT 7SM SCT015 OVC021 25/23 A2983 RMK AO2 T02470225
KPEZ 261215Z AUTO 13004KT 7SM OVC019 25/22 A2983 RMK AO2 T02480222
KPEZ 261155Z AUTO 14003KT 10SM OVC019 25/22 A2983 RMK AO2 T02500222 10253 20250
KPEZ 261135Z AUTO 14003KT 10SM OVC021 25/22 A2981 RMK AO2 T02500221
KPEZ 261115Z AUTO 14004KT 10SM OVC021 25/22 A2980 RMK AO2 T02500221
KPEZ 261055Z AUTO 14005KT 10SM OVC021 25/22 A2980 RMK AO2 T02510220
KPEZ 261035Z AUTO 16004KT 10SM OVC019 25/22 A2980 RMK AO2 T02510220
KPEZ 261015Z AUTO 16005KT 10SM OVC017 25/22 A2979 RMK AO2 T02510220
KPEZ 260955Z AUTO 16004KT 10SM OVC017 25/22 A2979 RMK AO2 T02510221
KPEZ 260935Z AUTO 16005KT 10SM OVC017 25/22 A2978 RMK AO2 T02510221
KPEZ 260915Z AUTO 15004KT 10SM OVC017 25/22 A2978 RMK AO2 T02500221
KPEZ 260855Z AUTO 16004KT 10SM OVC017 25/22 A2978 RMK AO2 T02510222
KPEZ 260835Z AUTO 15005KT 10SM OVC019 25/22 A2978 RMK AO2 T02500222
KPEZ 260815Z AUTO 15003KT 10SM OVC019 25/22 A2978 RMK AO2 T02500223
KPEZ 260755Z AUTO 14005KT 10SM OVC021 25/22 A2977 RMK AO2 T02500224
KPEZ 260735Z AUTO 14004KT 10SM BKN017 OVC023 25/23 A2978 RMK AO2 T02500225
KPEZ 260715Z AUTO 15004KT 10SM BKN017 OVC022 25/23 A2978 RMK AO2 T02500225
KPEZ 260655Z AUTO 15004KT 10SM OVC019 25/23 A2978 RMK AO2 T02500225
KPEZ 260635Z AUTO 15006KT 10SM OVC019 25/23 A2978 RMK AO2 T02510225
KPEZ 260615Z AUTO 16007KT 10SM BKN014 OVC021 25/22 A2978 RMK AO2 T02520224
KPEZ 260555Z AUTO 16008KT 10SM OVC014 25/22 A2978 RMK AO2 T02530223 10324 20251 403540151
KPEZ 260535Z AUTO 16009KT 10SM OVC014 26/23 A2978 RMK AO2 T02550225
KPEZ 260515Z AUTO 15010G15KT 10SM OVC014 25/22 A2977 RMK AO2 T02540224
KPEZ 260455Z AUTO 15010KT 10SM OVC014 25/22 A2977 RMK AO2 T02530223
KPEZ 260435Z AUTO 15011G16KT 10SM OVC014 25/22 A2976 RMK AO2 T02530222
KPEZ 260415Z AUTO 16011G17KT 10SM OVC014 25/22 A2976 RMK AO2 T02530221
KPEZ 260355Z AUTO 15010G15KT 100V180 10SM OVC014 25/22 A2976 RMK AO2 T02520220
KPEZ 260335Z AUTO 15011G19KT 10SM SCT016 25/22 A2974 RMK AO2 T02510218
KPEZ 260315Z AUTO 14012G17KT 10SM CLR 26/22 A2974 RMK AO2 T02550217
KPEZ 260255Z AUTO 13008G17KT 10SM CLR 26/22 A2972 RMK AO2 T02600216
KPEZ 260235Z AUTO 13008G14KT 10SM CLR 27/22 A2971 RMK AO2 T02650215
KPEZ 260215Z AUTO 14011G18KT 10SM CLR 27/21 A2971 RMK AO2 T02710214
KPEZ 260155Z AUTO 13009G17KT 10SM CLR 28/21 A2971 RMK AO2 T02770212
KPEZ 260135Z AUTO 13009G18KT 10SM CLR 29/21 A2970 RMK AO2 T02850211
KPEZ 260115Z AUTO 13010G17KT 10SM CLR 29/21 A2970 RMK AO2 T02940209
KPEZ 260055Z AUTO 14009G15KT 10SM CLR 31/21 A2969 RMK AO2 T03050206
KPEZ 260035Z AUTO 14011G19KT 10SM CLR 31/20 A2969 RMK AO2 T03120199
KPEZ 260015Z AUTO 14010G17KT 10SM CLR 32/20 A2969 RMK AO2 T03200196
KPEZ 252355Z AUTO 14013G20KT 10SM CLR 33/19 A2969 RMK AO2 T03250192 10354 20312
KPEZ 252335Z AUTO 15012G18KT 10SM CLR 33/19 A2968 RMK AO2 T03300192
KPEZ 252315Z AUTO 14012G20KT 10SM CLR 33/19 A2968 RMK AO2 T03310190
KPEZ 252255Z AUTO 15012G17KT 110V170 10SM CLR 34/19 A2968 RMK AO2 T03370190
KPEZ 252235Z AUTO 13012G20KT 10SM CLR 34/19 A2968 RMK AO2 T03400185
KPEZ 252215Z AUTO 15014G21KT 10SM CLR 35/18 A2968 RMK AO2 T03450180
KPEZ 252155Z AUTO 14012G19KT 10SM CLR 35/16 A2969 RMK AO2 T03510164
KPEZ 252135Z AUTO 17012G17KT 10SM CLR 35/16 A2970 RMK AO2 T03540162
KPEZ 252115Z AUTO 16012G21KT 10SM CLR 35/16 A2970 RMK AO2 T03510160
KPEZ 252055Z AUTO 14012G18KT 10SM CLR 35/16 A2971 RMK AO2 T03470158
KPEZ 252035Z AUTO 16008G15KT 10SM CLR 35/16 A2972 RMK AO2 T03480163
KPEZ 252015Z AUTO 15010KT 130V190 10SM CLR 34/16 A2973 RMK AO2 T03440161
KPEZ 251955Z AUTO 17013G21KT 10SM CLR 34/16 A2974 RMK AO2 T03400161
KPEZ 251935Z AUTO 21007G18KT 10SM CLR 33/16 A2975 RMK AO2 T03320162
KPEZ 251915Z AUTO 17011G16KT 10SM CLR 33/17 A2976 RMK AO2 T03320165
KPEZ 251855Z AUTO 19009G20KT 10SM CLR 33/16 A2977 RMK AO2 T03250163
KPEZ 251835Z AUTO 16011G17KT 10SM CLR 32/16 A2977 RMK AO2 T03210163
KPEZ 251815Z AUTO 18006G20KT 10SM CLR 32/16 A2978 RMK AO2 T03160160
KPEZ 251755Z AUTO 15010G16KT 10SM CLR 31/16 A2978 RMK AO2 T03130155 10313 20155
KPEZ 251735Z AUTO 19008G18KT 10SM CLR 31/15 A2979 RMK AO2 T03050152
KPEZ 251715Z AUTO 18011G16KT 10SM CLR 30/15 A2979 RMK AO2 T03010153
KPEZ 251655Z AUTO 17012G18KT 10SM CLR 29/16 A2980 RMK AO2 T02910155
KPEZ 251635Z AUTO 16012G16KT 10SM CLR 29/15 A2980 RMK AO2 T02900154
KPEZ 251615Z AUTO 18010G14KT 10SM CLR 28/15 A2980 RMK AO2 T02810146
KPEZ 251555Z AUTO 18009KT 10SM CLR 27/15 A2981 RMK AO2 T02730150
KPEZ 251535Z AUTO 18012G17KT 10SM CLR 27/15 A2981 RMK AO2 T02660145
KPEZ 251515Z AUTO 19012G17KT 10SM CLR 26/15 A2982 RMK AO2 T02570151
KPEZ 251455Z AUTO 16011KT 10SM CLR 25/16 A2982 RMK AO2 T02500155
KPEZ 251435Z AUTO 18011G15KT 10SM CLR 24/16 A2982 RMK AO2 T02390157
KPEZ 251415Z AUTO 20010G15KT 10SM CLR 23/16 A2982 RMK AO2 T02260157
KPEZ 251355Z AUTO 19008KT 10SM CLR 22/15 A2982 RMK AO2 T02160153
KPEZ 251335Z AUTO 18006KT 10SM CLR 21/15 A2981 RMK AO2 T02060150
KPEZ 251315Z AUTO 18006KT 10SM CLR 20/15 A2981 RMK AO2 T01960146
KPEZ 251255Z AUTO 00000KT 10SM CLR 18/14 A2981 RMK AO2 T01820144
KPEZ 251235Z AUTO 00000KT 10SM CLR 17/14 A2981 RMK AO2 T01720141
KPEZ 251215Z AUTO 00000KT 10SM CLR 16/14 A2981 RMK AO2 T01580136
KPEZ 251155Z AUTO 00000KT 10SM CLR 16/13 A2980 RMK AO2 T01550131 10191 20151
KPEZ 251135Z AUTO 00000KT 10SM CLR 16/13 A2979 RMK AO2 T01580131
KPEZ 251115Z AUTO 00000KT 10SM CLR 16/13 A2978 RMK AO2 T01560130
KPEZ 251055Z AUTO 00000KT 10SM CLR 15/13 A2978 RMK AO2 T01530129
KPEZ 251035Z AUTO 00000KT 10SM CLR 15/13 A2978 RMK AO2 T01520127
KPEZ 251015Z AUTO 00000KT 10SM CLR 16/13 A2978 RMK AO2 T01570125
KPEZ 250955Z AUTO 00000KT 10SM CLR 16/13 A2978 RMK AO2 T01580125
KPEZ 250935Z AUTO 00000KT 10SM CLR 16/13 A2977 RMK AO2 T01590125
KPEZ 250915Z AUTO 00000KT 10SM CLR 16/13 A2977 RMK AO2 T01600125
KPEZ 250855Z AUTO 00000KT 10SM CLR 16/12 A2977 RMK AO2 T01610123


Page loaded:  20:53 UTC  |   01:53 PM Pacific  |   02:53 PM Mountain  |   03:53 PM Central  |   04:53 PM Eastern

 

ADVISORIES

FORECASTS

FORECASTS

OBSERVATIONS

USER TOOLS

ABOUT US